Terminal Aerodrome Forecast
Issued by NWS Sterling, VA

Current Version | Previous Version | Graphics & Text | Print | Product List | Glossary On
Versions: 1 2 3 4 5 6 7 8 9 10 11 12 13 14 15 16 17 18 19 20 21 22 23 24 25 26 27 28
000
FTUS41 KLWX 162100 AAA
TAFDCA
TAF AMD
KDCA 162100Z 1621/1724 32016G23KT 6SM -SHRA OVC050
     FM170200 33013G20KT P6SM SCT200
     FM170800 35005KT P6SM SKC
     FM171400 07005KT P6SM SCT150
     FM171800 13005KT P6SM BKN110
     FM172100 14006KT 2SM -SNPL OVC030=

USA.gov is the U.S. government's official web portal to all federal, state and local government web resources and services.